Weigh Scale, Pennsylvania
Current Conditions -  °F | °C
As of 8:53 AM on Monday 24 Nov 2014 (Local Time) from KSEG Reporting Station
Clear Clear  
Wind Chill: 64°   Ceiling: Unl
Heat Index: 64°   Visibility: 10mi
Dew Point: 57°   Wind: 12mph
Humidity: 78%   Direction: 180°S
Pressure: 29.58"   Gusts: 23mph
Location:  40.7842°N, 76.5797°W
Report Text: KSEG 241353Z AUTO 18010G20KT 10SM CLR 18/14 A2958 RMK AO2 SLP016 T01780139
Loading
Personal Weather Stations






























Interactive Weather Map New forecast layout! Learn more

10-Day Weather Forecast

Advertisements
Track Severe Weather on mobile